»·PEaware :: N4D KSBA-KBFL

N4D :: KSBA-KBFL

FLIGHT INFORMATION

Flight Status: Arrived
Operator: Privately registered:
United States
More flights under this callsign
Pilot: Alec D. (17934)
Aircraft: BEECH AIRCRAFT SUPER KING AIR COMMUTER
(BE20)
More flights by this aircraft type
Origin: KSBA Santa Barbara Mun
United States
Destination: KBFL Meadows
United States
More flights between these airports :: More routes between these airports
Route: RZS V183 EHF
File this flight plan on PilotEdge
Remarks:
Altitude:
(Current/Filed)
9,000ft
Speed:
(Current/Filed)
260kts
Departed: 02-Jul-18 10:27 AM
Arrived: 02-Jul-18 10:58 AM
Distance/Time
Traveled:
72nm/0:31
Distance/Time
To Go:
Arrived

Flight Plot

Page will automatically refresh every two minutes.


Map Options




Map Legend


Flown Route
Filed Route
Departure Airport
Arrival Airport
Navaid (VOR, NDB)
Fix

Horizontal Profiles

Position Reports

Time Latitude Longitude Heading Altitude Ground
Speed
02-Jul-18 09:43 34.423366 -119.835759 72 14ft 0kts
02-Jul-18 09:44 34.423366 -119.835759 72 14ft 0kts
02-Jul-18 09:45 34.423366 -119.835759 72 14ft 0kts
02-Jul-18 09:46 34.423366 -119.835759 72 14ft 0kts
02-Jul-18 09:47 34.423366 -119.835759 72 14ft 0kts
02-Jul-18 09:48 34.423367 -119.835755 72 14ft 0kts
02-Jul-18 09:50 34.423368 -119.835752 72 14ft 0kts
02-Jul-18 09:51 34.423368 -119.835752 72 14ft 0kts
02-Jul-18 09:52 34.423368 -119.835752 72 14ft 0kts
02-Jul-18 09:53 34.423369 -119.835749 72 14ft 0kts
02-Jul-18 09:54 34.423371 -119.835742 72 14ft 0kts
02-Jul-18 09:55 34.423372 -119.835738 71 14ft 0kts
02-Jul-18 09:56 34.423372 -119.835736 71 14ft 0kts
02-Jul-18 09:57 34.423373 -119.835732 71 14ft 0kts
02-Jul-18 09:58 34.423374 -119.835729 71 14ft 0kts
02-Jul-18 10:06 34.424054 -119.835924 72 14ft 0kts
02-Jul-18 10:08 34.424054 -119.835924 72 14ft 0kts
02-Jul-18 10:09 34.424054 -119.835924 72 14ft 0kts
02-Jul-18 10:10 34.424054 -119.835924 72 14ft 0kts
02-Jul-18 10:11 34.424054 -119.835924 72 14ft 0kts
02-Jul-18 10:12 34.424055 -119.835919 72 14ft 0kts
02-Jul-18 10:13 34.424057 -119.835912 72 14ft 0kts
02-Jul-18 10:14 34.424058 -119.835909 72 14ft 0kts
02-Jul-18 10:15 34.424058 -119.835906 72 14ft 0kts
02-Jul-18 10:17 34.424060 -119.835898 72 14ft 0kts
02-Jul-18 10:18 34.424061 -119.835895 72 14ft 0kts
02-Jul-18 10:19 34.424062 -119.835892 72 14ft 0kts
02-Jul-18 10:20 34.424063 -119.835889 72 14ft 0kts
02-Jul-18 10:21 34.424064 -119.835885 72 14ft 0kts
02-Jul-18 10:22 34.424065 -119.835882 72 14ft 0kts
02-Jul-18 10:23 34.424066 -119.835878 72 14ft 0kts
02-Jul-18 10:24 34.424089 -119.836282 227 14ft 10kts
02-Jul-18 10:25 34.426825 -119.837425 85 14ft 15kts
02-Jul-18 10:26 34.427277 -119.835150 356 14ft 0kts
02-Jul-18 10:27 34.427493 -119.835157 359 14ft 9kts
02-Jul-18 10:28 34.427582 -119.848786 265 139ft 120kts
02-Jul-18 10:29 34.426389 -119.899482 268 1991ft 179kts
02-Jul-18 10:30 34.411466 -119.960468 208 3268ft 212kts
02-Jul-18 10:31 34.357322 -119.944619 152 5172ft 205kts
02-Jul-18 10:32 34.346112 -119.891177 39 6763ft 195kts
02-Jul-18 10:33 34.392632 -119.856303 29 8380ft 197kts
02-Jul-18 10:34 34.442838 -119.819808 29 9008ft 230kts
02-Jul-18 10:35 34.500250 -119.777772 29 9004ft 247kts
02-Jul-18 10:36 34.560600 -119.736068 28 9003ft 251kts
02-Jul-18 10:37 34.621720 -119.694702 28 9008ft 252kts
02-Jul-18 10:38 34.683229 -119.652804 28 9012ft 253kts
02-Jul-18 10:39 34.744619 -119.610645 28 9014ft 255kts
02-Jul-18 10:40 34.806504 -119.567958 28 8990ft 256kts
02-Jul-18 10:41 34.868913 -119.525301 28 8991ft 257kts
02-Jul-18 10:42 34.931365 -119.482100 28 8979ft 257kts
02-Jul-18 10:43 34.993948 -119.438752 28 9007ft 258kts
02-Jul-18 10:44 35.056721 -119.395220 28 8984ft 258kts
02-Jul-18 10:45 35.118985 -119.352124 28 8971ft 258kts
02-Jul-18 10:46 35.181555 -119.308701 29 9046ft 257kts
02-Jul-18 10:47 35.243535 -119.265576 29 9044ft 258kts
02-Jul-18 10:48 35.284843 -119.196648 70 7943ft 254kts
02-Jul-18 10:49 35.304836 -119.114666 72 6441ft 248kts
02-Jul-18 10:50 35.316456 -119.032491 91 4968ft 247kts
02-Jul-18 10:50 35.295058 -118.968960 126 3721ft 243kts
02-Jul-18 10:51 35.260521 -118.905346 87 3047ft 202kts
02-Jul-18 10:52 35.295439 -118.889938 328 3035ft 165kts
02-Jul-18 10:53 35.329455 -118.928051 311 3008ft 164kts
02-Jul-18 10:54 35.357058 -118.963947 316 2591ft 134kts
02-Jul-18 10:55 35.383831 -118.995252 312 1898ft 129kts
02-Jul-18 10:56 35.405026 -119.021340 311 1303ft 103kts
02-Jul-18 10:58 35.428483 -119.049699 313 620ft 99kts
02-Jul-18 10:58 35.438551 -119.061535 67 511ft 12kts
02-Jul-18 10:59 35.438603 -119.060622 82 511ft 0kts
02-Jul-18 11:00 35.435599 -119.055861 136 511ft 22kts
02-Jul-18 11:01 35.431102 -119.050494 136 511ft 21kts
02-Jul-18 11:02 35.429787 -119.045910 44 511ft 13kts
02-Jul-18 11:03 35.429884 -119.045792 43 511ft 0kts
02-Jul-18 11:04 35.429884 -119.045792 43 511ft 0kts

Navigation Log

Ident Type
1. KSBA Airport
2. RZS Navaid
3. TAFTO Fix
4. MARIC Fix
5. EHF Navaid
6. KBFL Airport